createdAt,value
2019-05-23T00:01:11.388Z,7.57
2019-05-23T00:04:09.993Z,9.30
2019-05-23T00:07:00.653Z,7.33
2019-05-23T00:09:50.424Z,8.07
2019-05-23T00:12:42.052Z,7.20
2019-05-23T00:15:25.739Z,8.67
2019-05-23T00:17:57.266Z,6.87
2019-05-23T00:20:29.626Z,7.70
2019-05-23T00:23:01.505Z,8.20
2019-05-23T00:25:33.318Z,8.00
2019-05-23T00:28:06.043Z,8.43
2019-05-23T00:30:57.314Z,8.63
2019-05-23T00:33:31.012Z,6.83
2019-05-23T00:36:02.207Z,8.53
2019-05-23T00:38:35.080Z,8.33
2019-05-23T00:41:07.214Z,7.33
2019-05-23T00:43:37.874Z,8.13
2019-05-23T00:46:09.850Z,8.53
2019-05-23T00:48:42.762Z,8.40
2019-05-23T00:51:15.876Z,7.93
2019-05-23T00:53:46.688Z,7.33
2019-05-23T00:56:18.671Z,9.93
2019-05-23T00:58:50.382Z,8.47
2019-05-23T01:01:22.671Z,8.27
2019-05-23T01:03:54.798Z,7.67
2019-05-23T01:06:28.186Z,7.83
2019-05-23T01:08:59.975Z,7.73
2019-05-23T01:11:30.776Z,7.40
2019-05-23T01:14:01.637Z,8.13
2019-05-23T01:16:33.965Z,9.10
2019-05-23T01:19:05.217Z,7.87
2019-05-23T01:21:43.941Z,8.63
2019-05-23T01:24:29.541Z,8.27
2019-05-23T01:27:00.116Z,9.30
2019-05-23T01:29:37.787Z,8.47
2019-05-23T01:32:13.615Z,9.03
2019-05-23T01:34:44.826Z,8.17
2019-05-23T01:37:15.930Z,7.93
2019-05-23T01:39:46.747Z,7.77
2019-05-23T01:42:17.612Z,8.47
2019-05-23T01:44:50.292Z,8.00
2019-05-23T01:47:21.605Z,8.40
2019-05-23T01:49:53.221Z,9.33
2019-05-23T01:52:23.801Z,7.90
2019-05-23T01:54:54.909Z,7.37
2019-05-23T01:57:26.518Z,8.10
2019-05-23T02:00:08.930Z,8.53
2019-05-23T02:02:30.922Z,7.43
2019-05-23T02:05:02.806Z,8.03
2019-05-23T02:07:35.035Z,8.03
2019-05-23T02:10:06.491Z,8.23
2019-05-23T02:12:40.354Z,7.07
2019-05-23T02:15:12.020Z,7.80
2019-05-23T02:17:44.088Z,6.93
2019-05-23T02:20:16.759Z,7.60
2019-05-23T02:22:48.518Z,8.03
2019-05-23T02:25:21.537Z,7.50
2019-05-23T02:27:53.555Z,8.93
2019-05-23T02:30:35.823Z,9.03
2019-05-23T02:32:58.943Z,8.67
2019-05-23T02:35:29.860Z,9.77
2019-05-23T02:38:31.567Z,9.27
2019-05-23T02:41:24.130Z,10.93
2019-05-23T02:44:00.118Z,11.03
2019-05-23T02:46:37.242Z,10.50
2019-05-23T02:49:11.492Z,9.17
2019-05-23T02:51:43.698Z,10.57
2019-05-23T02:54:16.201Z,9.93
2019-05-23T02:56:47.937Z,10.13
2019-05-23T02:59:43.328Z,10.17
2019-05-23T03:02:57.920Z,9.17
2019-05-23T03:05:29.018Z,9.57
2019-05-23T03:08:09.834Z,10.60
2019-05-23T03:11:00.917Z,10.10
2019-05-23T03:13:34.433Z,12.47
2019-05-23T03:16:06.135Z,10.50
2019-05-23T03:18:42.854Z,9.70
2019-05-23T03:21:15.782Z,10.03
2019-05-23T03:23:49.469Z,8.43
2019-05-23T03:26:54.643Z,10.03
2019-05-23T03:29:25.203Z,8.90
2019-05-23T03:32:18.618Z,8.80
2019-05-23T03:34:53.271Z,9.03
2019-05-23T03:37:24.328Z,10.60
2019-05-23T03:39:55.291Z,10.57
2019-05-23T03:42:27.550Z,11.03
2019-05-23T03:44:58.091Z,12.90
2019-05-23T03:47:31.206Z,16.73
2019-05-23T03:50:02.881Z,23.80
2019-05-23T03:52:33.452Z,18.90
2019-05-23T03:55:06.851Z,13.30
2019-05-23T03:57:39.392Z,13.80
2019-05-23T04:00:13.997Z,12.67
2019-05-23T04:02:48.672Z,11.53
2019-05-23T04:05:20.162Z,10.10
2019-05-23T04:07:52.599Z,14.23
2019-05-23T04:10:23.854Z,12.30
2019-05-23T04:12:55.345Z,10.37
2019-05-23T04:15:29.799Z,8.53
2019-05-23T04:18:02.842Z,9.47
2019-05-23T04:20:36.817Z,9.33
2019-05-23T04:23:11.447Z,10.73
2019-05-23T04:25:49.207Z,11.73
2019-05-23T04:28:21.725Z,15.50
2019-05-23T04:30:56.995Z,16.70
2019-05-23T04:33:27.694Z,14.03
2019-05-23T04:36:00.301Z,9.90
2019-05-23T04:38:36.204Z,11.03
2019-05-23T04:41:05.235Z,10.37
2019-05-23T04:43:35.806Z,10.77
2019-05-23T04:46:07.392Z,12.77
2019-05-23T04:48:38.524Z,11.87
2019-05-23T04:51:09.285Z,11.83
2019-05-23T04:53:43.747Z,11.80
2019-05-23T04:56:14.767Z,10.30
2019-05-23T04:58:45.410Z,8.67
2019-05-23T05:01:17.055Z,11.83
2019-05-23T05:03:49.040Z,9.07
2019-05-23T05:06:20.582Z,8.93
2019-05-23T05:08:54.490Z,10.60
2019-05-23T05:11:30.238Z,13.70
2019-05-23T05:13:58.734Z,12.93
2019-05-23T05:16:29.476Z,10.83
2019-05-23T05:18:59.956Z,11.03
2019-05-23T05:21:30.421Z,11.13
2019-05-23T05:24:00.986Z,22.10
2019-05-23T05:26:31.717Z,15.47
2019-05-23T05:29:02.658Z,13.90
2019-05-23T05:31:33.168Z,17.97
2019-05-23T05:34:04.043Z,17.83
2019-05-23T05:36:34.965Z,21.77
2019-05-23T05:39:07.695Z,21.43
2019-05-23T05:41:38.732Z,34.93
2019-05-23T05:44:11.822Z,31.97
2019-05-23T05:46:42.943Z,26.80
2019-05-23T05:49:14.284Z,18.33
2019-05-23T05:51:45.227Z,20.27
2019-05-23T05:54:16.348Z,20.50
2019-05-23T05:56:46.863Z,28.03
2019-05-23T05:59:17.518Z,30.67
2019-05-23T06:01:48.499Z,15.47
2019-05-23T06:04:19.403Z,19.63
2019-05-23T06:07:08.220Z,32.37
2019-05-23T06:09:39.109Z,20.27
2019-05-23T06:12:10.472Z,33.03
2019-05-23T06:14:41.155Z,42.07
2019-05-23T06:17:16.014Z,45.27
2019-05-23T06:19:46.704Z,45.63
2019-05-23T06:22:20.755Z,30.10
2019-05-23T06:24:54.222Z,29.83
2019-05-23T06:27:23.733Z,26.83
2019-05-23T06:29:55.602Z,40.83
2019-05-23T06:32:27.728Z,45.77
2019-05-23T06:34:58.453Z,28.53
2019-05-23T06:37:34.045Z,29.97
2019-05-23T06:40:02.353Z,14.50
2019-05-23T06:42:33.145Z,15.57
2019-05-23T06:45:05.101Z,21.33
2019-05-23T06:47:35.837Z,24.30
2019-05-23T06:50:10.421Z,30.43
2019-05-23T06:52:40.991Z,21.63
2019-05-23T06:55:11.843Z,22.50
2019-05-23T06:57:42.475Z,17.57
2019-05-23T07:00:16.821Z,19.90
2019-05-23T07:02:47.949Z,15.20
2019-05-23T07:05:21.877Z,13.57
2019-05-23T07:07:52.403Z,11.97
2019-05-23T07:10:24.622Z,14.13
2019-05-23T07:12:55.133Z,13.40
2019-05-23T07:15:26.997Z,11.67
2019-05-23T07:17:59.746Z,11.37
2019-05-23T07:20:30.531Z,11.47
2019-05-23T07:23:01.498Z,9.60
2019-05-23T07:25:32.092Z,15.73
2019-05-23T07:28:02.739Z,12.33
2019-05-23T07:30:33.353Z,9.17
2019-05-23T07:33:04.479Z,12.50
2019-05-23T07:35:35.103Z,10.67
2019-05-23T07:38:05.666Z,11.47
2019-05-23T07:40:36.448Z,11.67
2019-05-23T07:43:07.566Z,9.60
2019-05-23T07:45:43.978Z,10.80
2019-05-23T07:48:15.471Z,11.03
2019-05-23T07:50:46.146Z,11.87
2019-05-23T07:53:23.325Z,12.07
2019-05-23T07:55:54.225Z,13.33
2019-05-23T07:58:24.837Z,10.80
2019-05-23T08:00:59.174Z,12.23
2019-05-23T08:03:32.240Z,13.93
2019-05-23T08:06:03.072Z,11.23
2019-05-23T08:08:34.087Z,11.60
2019-05-23T08:11:04.703Z,12.70
2019-05-23T08:13:35.497Z,10.60
2019-05-23T08:16:06.429Z,12.20
2019-05-23T08:18:37.013Z,13.60
2019-05-23T08:21:07.725Z,12.87
2019-05-23T08:23:38.304Z,13.90
2019-05-23T08:26:09.480Z,11.57
2019-05-23T08:28:56.655Z,12.40
2019-05-23T08:31:12.551Z,10.63
2019-05-23T08:33:43.164Z,9.70
2019-05-23T08:36:14.480Z,10.10
2019-05-23T08:38:45.176Z,9.90
2019-05-23T08:41:16.460Z,10.13
2019-05-23T08:43:47.172Z,9.70
2019-05-23T08:46:19.211Z,11.60
2019-05-23T08:48:49.865Z,11.67
2019-05-23T08:51:20.512Z,10.07
2019-05-23T08:53:52.286Z,10.37
2019-05-23T08:56:22.990Z,12.20
2019-05-23T08:58:53.480Z,12.37
2019-05-23T09:01:24.286Z,13.80
2019-05-23T09:03:54.856Z,13.67
2019-05-23T09:06:25.590Z,12.33
2019-05-23T09:08:56.655Z,12.17
2019-05-23T09:11:27.437Z,13.63
2019-05-23T09:13:58.231Z,13.20
2019-05-23T09:16:29.015Z,12.80
2019-05-23T09:18:59.787Z,12.60
2019-05-23T09:21:30.268Z,12.33
2019-05-23T09:24:00.797Z,13.13
2019-05-23T09:26:31.447Z,13.53
2019-05-23T09:29:03.046Z,14.33
2019-05-23T09:31:33.860Z,14.50
2019-05-23T09:34:04.708Z,14.53
2019-05-23T09:36:35.755Z,14.87
2019-05-23T09:39:09.059Z,16.90
2019-05-23T09:41:41.101Z,14.67
2019-05-23T09:44:11.664Z,30.43
2019-05-23T09:46:43.208Z,21.17
2019-05-23T09:49:14.169Z,21.03
2019-05-23T09:51:45.442Z,18.27
2019-05-23T09:54:16.903Z,15.63
2019-05-23T09:56:47.498Z,22.87
2019-05-23T09:59:18.090Z,15.03
2019-05-23T10:01:48.864Z,12.57
2019-05-23T10:04:20.494Z,19.20
2019-05-23T10:06:50.975Z,18.27
2019-05-23T10:09:21.542Z,17.27
2019-05-23T10:11:52.949Z,17.27
2019-05-23T10:14:26.885Z,15.53
2019-05-23T10:16:57.541Z,17.63
2019-05-23T10:19:28.101Z,19.30
2019-05-23T10:21:59.696Z,17.80
2019-05-23T10:24:30.241Z,17.90
2019-05-23T10:27:00.844Z,18.63
2019-05-23T10:29:31.455Z,17.80
2019-05-23T10:32:02.154Z,18.33
2019-05-23T10:34:32.751Z,17.70
2019-05-23T10:37:03.865Z,18.37
2019-05-23T10:39:35.581Z,18.67
2019-05-23T10:42:06.469Z,17.27
2019-05-23T10:44:39.881Z,16.97
2019-05-23T10:47:10.504Z,17.57
2019-05-23T10:49:41.164Z,18.97
2019-05-23T10:52:11.831Z,15.93
2019-05-23T10:54:42.452Z,16.10
2019-05-23T10:57:13.185Z,16.70
2019-05-23T10:59:43.698Z,19.17
2019-05-23T11:02:16.437Z,22.13
2019-05-23T11:04:47.061Z,21.43
2019-05-23T11:07:17.977Z,18.23
2019-05-23T11:09:49.285Z,18.93
2019-05-23T11:12:19.778Z,21.97
2019-05-23T11:14:50.884Z,21.83
2019-05-23T11:17:22.257Z,24.90
2019-05-23T11:19:53.010Z,25.80
2019-05-23T11:22:24.594Z,26.30
2019-05-23T11:24:55.471Z,26.73
2019-05-23T11:27:26.776Z,25.27
2019-05-23T11:29:57.399Z,26.73
2019-05-23T11:32:30.658Z,24.87
2019-05-23T11:35:01.366Z,24.67
2019-05-23T11:37:32.053Z,23.50
2019-05-23T11:40:02.718Z,25.07
2019-05-23T11:42:33.276Z,24.27
2019-05-23T11:45:04.206Z,21.97
2019-05-23T11:47:34.944Z,26.03
2019-05-23T11:50:06.855Z,23.87
2019-05-23T11:52:37.694Z,23.10
2019-05-23T11:55:08.544Z,22.60
2019-05-23T11:57:39.551Z,21.13
2019-05-23T12:00:12.382Z,23.37
2019-05-23T12:02:44.960Z,27.30
2019-05-23T12:05:22.139Z,24.80
2019-05-23T12:07:52.814Z,32.83
2019-05-23T12:10:23.401Z,47.20
2019-05-23T12:12:53.890Z,43.87
2019-05-23T12:15:28.508Z,38.63
2019-05-23T12:17:59.543Z,38.50
2019-05-23T12:20:30.551Z,31.20
2019-05-23T12:23:01.206Z,25.83
2019-05-23T12:25:31.971Z,23.23
2019-05-23T12:28:02.997Z,28.30
2019-05-23T12:30:33.646Z,26.03
2019-05-23T12:33:04.491Z,21.90
2019-05-23T12:35:36.577Z,21.43
2019-05-23T12:38:07.453Z,21.13
2019-05-23T12:40:38.031Z,21.80
2019-05-23T12:43:08.616Z,20.20
2019-05-23T12:45:39.110Z,22.20
2019-05-23T12:48:16.527Z,23.33
2019-05-23T12:50:47.154Z,26.17
2019-05-23T12:53:17.799Z,27.33
2019-05-23T12:55:48.522Z,31.10
2019-05-23T12:58:20.069Z,28.60
2019-05-23T13:00:54.109Z,26.50
2019-05-23T13:03:24.972Z,25.13
2019-05-23T13:05:55.546Z,27.07
2019-05-23T13:08:26.241Z,26.37
2019-05-23T13:10:56.855Z,25.73
2019-05-23T13:13:27.986Z,24.97
2019-05-23T13:15:58.606Z,25.43
2019-05-23T13:18:29.268Z,24.67
2019-05-23T13:20:59.996Z,23.60
2019-05-23T13:23:31.114Z,22.67
2019-05-23T13:26:01.879Z,22.73
2019-05-23T13:28:32.586Z,22.87
2019-05-23T13:31:03.458Z,22.07
2019-05-23T13:33:34.029Z,22.90
2019-05-23T13:36:05.195Z,22.57
2019-05-23T13:38:36.174Z,22.37
2019-05-23T13:41:06.949Z,20.63
2019-05-23T13:43:38.090Z,18.53
2019-05-23T13:46:09.192Z,19.90
2019-05-23T13:48:39.883Z,15.83
2019-05-23T13:51:10.469Z,22.33
2019-05-23T13:53:41.521Z,16.93
2019-05-23T13:56:12.169Z,20.80
2019-05-23T13:58:42.909Z,20.33
2019-05-23T14:01:13.606Z,28.50
2019-05-23T14:03:44.475Z,23.63
2019-05-23T14:06:15.086Z,14.53
2019-05-23T14:08:45.586Z,14.97
2019-05-23T14:11:16.474Z,18.17
2019-05-23T14:13:47.813Z,13.50
2019-05-23T14:16:18.582Z,14.37
2019-05-23T14:18:49.471Z,12.93
2019-05-23T14:21:20.325Z,11.80
2019-05-23T14:23:50.883Z,10.63
2019-05-23T14:26:21.650Z,11.27
2019-05-23T14:28:52.237Z,9.60
2019-05-23T14:31:23.787Z,10.57
2019-05-23T14:34:12.237Z,11.63
2019-05-23T14:37:00.924Z,9.50
2019-05-23T14:39:44.181Z,9.10
2019-05-23T14:42:45.747Z,13.27
2019-05-23T14:45:36.039Z,11.50
2019-05-23T14:48:32.326Z,16.83
2019-05-23T14:51:28.607Z,16.00
2019-05-23T14:54:05.279Z,10.03
2019-05-23T14:56:36.993Z,11.07
2019-05-23T14:59:07.564Z,12.00
2019-05-23T15:01:38.740Z,11.23
2019-05-23T15:04:09.219Z,11.17
2019-05-23T15:06:39.779Z,12.20
2019-05-23T15:09:10.765Z,8.73
2019-05-23T15:11:41.390Z,8.70
2019-05-23T15:14:11.867Z,9.97
2019-05-23T15:16:43.846Z,7.33
2019-05-23T15:19:14.431Z,7.63
2019-05-23T15:21:45.006Z,7.67
2019-05-23T15:24:16.318Z,8.60
2019-05-23T15:26:49.146Z,7.10
2019-05-23T15:29:20.131Z,10.10
2019-05-23T15:32:01.781Z,7.43
2019-05-23T15:34:23.808Z,7.43
2019-05-23T15:36:55.478Z,8.30
2019-05-23T15:39:28.716Z,9.63
2019-05-23T15:41:59.279Z,11.83
2019-05-23T15:44:31.078Z,8.27
2019-05-23T15:47:03.200Z,6.50
2019-05-23T15:49:34.062Z,7.40
2019-05-23T15:52:15.012Z,7.67
2019-05-23T15:55:00.504Z,7.07
2019-05-23T15:57:50.059Z,7.43
2019-05-23T16:00:42.763Z,6.50
2019-05-23T16:03:38.006Z,6.50
2019-05-23T16:06:11.416Z,6.60
2019-05-23T16:08:42.734Z,6.10
2019-05-23T16:11:17.407Z,6.60
2019-05-23T16:13:46.553Z,6.70
2019-05-23T16:16:18.626Z,6.47
2019-05-23T16:18:49.921Z,6.83
2019-05-23T16:21:21.651Z,6.93
2019-05-23T16:23:54.545Z,7.60
2019-05-23T16:26:25.254Z,9.50
2019-05-23T16:28:55.962Z,13.03
2019-05-23T16:31:27.526Z,25.63
2019-05-23T16:33:59.524Z,29.60
2019-05-23T16:36:30.264Z,33.27
2019-05-23T16:39:00.788Z,34.37
2019-05-23T16:41:33.076Z,26.50
2019-05-23T16:44:03.887Z,29.60
2019-05-23T16:46:34.542Z,27.03
2019-05-23T16:49:05.480Z,22.43
2019-05-23T16:51:36.334Z,21.43
2019-05-23T16:54:07.044Z,23.50
2019-05-23T16:56:50.613Z,23.37
2019-05-23T16:59:34.192Z,25.67
2019-05-23T17:02:14.649Z,29.27
2019-05-23T17:05:08.493Z,28.10
2019-05-23T17:07:39.669Z,25.47
2019-05-23T17:10:24.546Z,28.07
2019-05-23T17:13:07.336Z,23.73
2019-05-23T17:15:56.629Z,16.93
2019-05-23T17:18:44.800Z,15.87
2019-05-23T17:21:34.670Z,14.30
2019-05-23T17:24:34.724Z,17.90
2019-05-23T17:27:10.973Z,17.53
2019-05-23T17:29:54.419Z,17.53
2019-05-23T17:32:28.892Z,22.27
2019-05-23T17:35:00.959Z,23.03
2019-05-23T17:37:33.142Z,25.80
2019-05-23T17:40:23.227Z,19.33
2019-05-23T17:42:39.671Z,16.97
2019-05-23T17:45:14.062Z,17.97
2019-05-23T17:47:43.230Z,18.17
2019-05-23T17:50:13.925Z,18.97
2019-05-23T17:52:44.509Z,21.20
2019-05-23T17:55:15.940Z,15.07
2019-05-23T17:57:46.593Z,13.90
2019-05-23T18:00:21.995Z,16.17
2019-05-23T18:02:54.456Z,16.93
2019-05-23T18:05:27.045Z,17.40
2019-05-23T18:07:57.734Z,16.13
2019-05-23T18:10:44.136Z,15.20
2019-05-23T18:13:02.069Z,14.37
2019-05-23T18:15:34.804Z,15.87
2019-05-23T18:18:06.700Z,14.33
2019-05-23T18:20:38.026Z,17.50
2019-05-23T18:23:09.186Z,17.53
2019-05-23T18:25:41.425Z,17.73
2019-05-23T18:28:13.932Z,10.70
2019-05-23T18:30:56.895Z,8.23
2019-05-23T18:33:28.753Z,9.20
2019-05-23T18:36:01.115Z,8.27
2019-05-23T18:38:31.990Z,8.73
2019-05-23T18:41:08.780Z,9.80
2019-05-23T18:43:55.141Z,9.77
2019-05-23T18:46:30.772Z,9.77
2019-05-23T18:49:01.944Z,12.47
2019-05-23T18:51:33.280Z,11.93
2019-05-23T18:54:04.135Z,9.87
2019-05-23T18:56:52.872Z,9.40
2019-05-23T18:59:23.494Z,9.47
2019-05-23T19:01:54.362Z,12.00
2019-05-23T19:04:42.962Z,11.93
2019-05-23T19:07:14.241Z,17.37
2019-05-23T19:10:02.431Z,16.87
2019-05-23T19:12:50.772Z,12.60
2019-05-23T19:15:22.822Z,15.87
2019-05-23T19:18:11.343Z,28.47
2019-05-23T19:20:42.101Z,37.50
2019-05-23T19:23:14.212Z,39.27
2019-05-23T19:26:07.132Z,44.93
2019-05-23T19:28:56.157Z,43.73
2019-05-23T19:31:45.701Z,40.73
2019-05-23T19:34:18.037Z,32.03
2019-05-23T19:36:49.486Z,25.63
2019-05-23T19:39:23.905Z,25.90
2019-05-23T19:41:56.537Z,28.57
2019-05-23T19:44:44.933Z,18.33
2019-05-23T19:47:16.003Z,18.23
2019-05-23T19:49:46.685Z,16.87
2019-05-23T19:52:52.665Z,27.40
2019-05-23T19:55:23.431Z,21.80
2019-05-23T19:58:12.538Z,21.07
2019-05-23T20:00:44.202Z,25.03
2019-05-23T20:03:15.786Z,25.83
2019-05-23T20:05:48.151Z,27.97
2019-05-23T20:08:19.140Z,29.67
2019-05-23T20:11:25.495Z,32.00
2019-05-23T20:13:56.390Z,27.13
2019-05-23T20:16:28.396Z,25.20
2019-05-23T20:18:59.098Z,21.03
2019-05-23T20:21:30.119Z,18.43
2019-05-23T20:24:00.701Z,16.87
2019-05-23T20:26:31.302Z,20.07
2019-05-23T20:29:05.177Z,17.77
2019-05-23T20:31:36.610Z,21.20
2019-05-23T20:34:25.281Z,20.90
2019-05-23T20:36:55.836Z,24.20
2019-05-23T20:39:26.564Z,23.60
2019-05-23T20:42:10.304Z,20.73
2019-05-23T20:44:29.748Z,17.40
2019-05-23T20:47:02.623Z,16.60
2019-05-23T20:49:33.222Z,16.60
2019-05-23T20:52:21.459Z,14.07
2019-05-23T20:54:52.097Z,13.30
2019-05-23T20:57:22.679Z,12.40
2019-05-23T20:59:53.186Z,12.07
2019-05-23T21:02:24.045Z,12.20
2019-05-23T21:04:54.745Z,11.60
2019-05-23T21:07:43.471Z,11.03
2019-05-23T21:10:48.460Z,11.93
2019-05-23T21:13:19.329Z,11.93
2019-05-23T21:16:08.059Z,12.87
2019-05-23T21:18:38.800Z,13.70
2019-05-23T21:21:27.239Z,14.63
2019-05-23T21:23:57.730Z,15.23
2019-05-23T21:26:28.285Z,15.37
2019-05-23T21:28:59.007Z,13.37
2019-05-23T21:31:32.148Z,13.33
2019-05-23T21:34:02.766Z,14.03
2019-05-23T21:36:51.307Z,12.87
2019-05-23T21:39:24.464Z,11.70
2019-05-23T21:41:56.065Z,11.43
2019-05-23T21:44:26.520Z,10.50
2019-05-23T21:46:57.155Z,11.13
2019-05-23T21:49:27.739Z,11.63
2019-05-23T21:51:58.505Z,12.47
2019-05-23T21:54:29.105Z,18.30
2019-05-23T21:57:00.034Z,18.87
2019-05-23T21:59:48.338Z,17.93
2019-05-23T22:02:31.292Z,18.60
2019-05-23T22:05:12.742Z,16.10
2019-05-23T22:07:43.860Z,15.70
2019-05-23T22:10:14.431Z,13.17
2019-05-23T22:12:45.273Z,14.77
2019-05-23T22:15:19.994Z,14.77
2019-05-23T22:17:51.073Z,13.07
2019-05-23T22:20:21.555Z,11.90
2019-05-23T22:22:52.190Z,12.20
2019-05-23T22:25:33.190Z,11.97
2019-05-23T22:28:03.777Z,13.17
2019-05-23T22:30:35.547Z,12.27
2019-05-23T22:33:07.426Z,13.03
2019-05-23T22:35:37.883Z,12.53
2019-05-23T22:38:08.873Z,14.20
2019-05-23T22:40:57.167Z,13.63
2019-05-23T22:43:45.660Z,13.50
2019-05-23T22:46:34.053Z,12.43
2019-05-23T22:49:04.668Z,11.30
2019-05-23T22:51:52.753Z,10.60
2019-05-23T22:54:41.021Z,9.60
2019-05-23T22:57:11.643Z,9.63
2019-05-23T23:00:00.114Z,10.10
2019-05-23T23:02:30.792Z,10.53
2019-05-23T23:05:01.300Z,10.17
2019-05-23T23:07:32.012Z,10.93
2019-05-23T23:10:02.572Z,10.47
2019-05-23T23:12:34.300Z,11.03
2019-05-23T23:15:05.122Z,10.70
2019-05-23T23:17:35.600Z,11.73
2019-05-23T23:20:07.090Z,12.27
2019-05-23T23:22:37.708Z,10.93
2019-05-23T23:25:08.341Z,11.13
2019-05-23T23:27:38.998Z,11.50
2019-05-23T23:30:11.394Z,11.63
2019-05-23T23:32:43.257Z,11.43
2019-05-23T23:35:13.846Z,11.80
2019-05-23T23:37:44.734Z,12.63
2019-05-23T23:40:15.548Z,12.00
2019-05-23T23:43:03.430Z,12.23
2019-05-23T23:45:52.001Z,13.03
2019-05-23T23:48:40.188Z,13.27
2019-05-23T23:51:28.700Z,12.53
2019-05-23T23:54:16.824Z,12.87
2019-05-23T23:57:05.140Z,12.27
2019-05-23T23:59:34.602Z,12.40
